Time;durP1;ratioP1;P1;durP2;ratioP2;P2;SDS_P1;SDS_P2;PMS_P1;PMS_P2;Temp;Humidity;BMP_temperature;BMP_pressure;BME280_temperature;BME280_humidity;BME280_pressure;Samples;Min_cycle;Max_cycle;Signal;HPM_P1;HPM_P2
2021/10/09 00:01:16;;;;;;;49.20;31.85;;;;;;;10.13;100.00;103124.09;5025663;28;20075;-74
2021/10/09 00:03:41;;;;;;;51.85;33.95;;;;;;;10.13;100.00;103123.16;5011629;28;20030;-75
2021/10/09 00:06:06;;;;;;;46.97;32.30;;;;;;;10.09;100.00;103118.56;5010318;28;20600;-75
2021/10/09 00:08:32;;;;;;;51.15;33.78;;;;;;;10.08;100.00;103119.41;5013227;28;20041;-75
2021/10/09 00:10:58;;;;;;;45.25;31.05;;;;;;;10.05;100.00;103120.13;5010137;28;20505;-75
2021/10/09 00:13:23;;;;;;;46.10;31.02;;;;;;;10.03;100.00;103120.88;4999509;28;20030;-75
2021/10/09 00:15:49;;;;;;;47.63;31.60;;;;;;;10.06;100.00;103121.91;5011520;28;20096;-73
2021/10/09 00:18:14;;;;;;;49.90;34.00;;;;;;;10.05;100.00;103119.22;5008651;28;20022;-74
2021/10/09 00:20:40;;;;;;;48.90;33.17;;;;;;;10.03;100.00;103119.13;5010111;28;20120;-74
2021/10/09 00:23:05;;;;;;;49.72;32.65;;;;;;;9.98;100.00;103117.06;5011923;28;20038;-74
2021/10/09 00:25:31;;;;;;;45.55;31.55;;;;;;;9.96;100.00;103122.25;5006160;28;20038;-75
2021/10/09 00:27:56;;;;;;;47.97;33.65;;;;;;;9.94;100.00;103115.97;5010471;28;20030;-74
2021/10/09 00:30:21;;;;;;;45.22;31.15;;;;;;;9.91;100.00;103121.97;5011257;28;20033;-74
2021/10/09 00:32:47;;;;;;;51.47;34.90;;;;;;;9.88;100.00;103120.91;5003850;28;20022;-74
2021/10/09 00:35:12;;;;;;;50.88;33.38;;;;;;;9.86;100.00;103119.91;5010301;28;20026;-74
2021/10/09 00:37:37;;;;;;;55.95;34.72;;;;;;;9.87;100.00;103129.63;5012265;28;20037;-75
2021/10/09 00:40:04;;;;;;;53.20;35.42;;;;;;;9.85;100.00;103118.09;5032339;28;20525;-73
2021/10/09 00:42:29;;;;;;;55.05;35.55;;;;;;;9.87;100.00;103119.09;5014695;28;20479;-74
2021/10/09 00:44:54;;;;;;;52.45;34.90;;;;;;;9.86;100.00;103122.53;5013854;28;20037;-76
2021/10/09 00:47:22;;;;;;;50.85;33.92;;;;;;;9.85;100.00;103120.72;5014679;28;20032;-74
2021/10/09 00:49:48;;;;;;;48.53;33.95;;;;;;;9.83;100.00;103122.38;5014753;28;20025;-74
2021/10/09 00:52:13;;;;;;;56.33;35.72;;;;;;;9.83;100.00;103118.00;5015921;28;20374;-72
2021/10/09 00:54:43;;;;;;;53.55;33.05;;;;;;;9.81;100.00;103116.13;5014794;28;20044;-74
2021/10/09 00:57:12;;;;;;;58.75;35.45;;;;;;;9.79;100.00;103121.28;5013384;28;20037;-74
2021/10/09 00:59:39;;;;;;;58.22;34.97;;;;;;;9.81;100.00;103116.13;5015350;28;20049;-74
2021/10/09 01:02:06;;;;;;;52.38;33.40;;;;;;;9.79;100.00;103116.03;5015000;28;20030;-74
2021/10/09 01:04:33;;;;;;;54.38;35.20;;;;;;;9.78;100.00;103115.13;5031280;28;20128;-75
2021/10/09 01:07:00;;;;;;;49.28;33.92;;;;;;;9.76;100.00;103114.13;5015119;28;20141;-74
2021/10/09 01:09:25;;;;;;;59.63;36.60;;;;;;;9.76;100.00;103111.50;5032442;28;20478;-75
2021/10/09 01:11:51;;;;;;;53.47;35.67;;;;;;;9.73;100.00;103106.06;5013328;28;20079;-74
2021/10/09 01:14:16;;;;;;;54.83;36.20;;;;;;;9.73;100.00;103105.19;5014026;28;20021;-74
2021/10/09 01:16:41;;;;;;;60.08;36.65;;;;;;;9.73;100.00;103108.72;5010375;28;20478;-74
2021/10/09 01:19:08;;;;;;;53.10;35.22;;;;;;;9.72;100.00;103109.53;5013072;28;20379;-74
2021/10/09 01:21:41;;;;;;;58.58;35.05;;;;;;;9.74;100.00;103105.28;5014851;28;20026;-75
2021/10/09 01:24:07;;;;;;;56.67;36.60;;;;;;;9.73;100.00;103099.94;5014940;28;20054;-75
2021/10/09 01:26:33;;;;;;;57.20;34.88;;;;;;;9.70;100.00;103100.66;5013069;28;20030;-75
2021/10/09 01:28:58;;;;;;;54.83;34.97;;;;;;;9.68;100.00;103099.66;5014183;28;20018;-75
2021/10/09 01:31:24;;;;;;;60.97;35.03;;;;;;;9.67;100.00;103095.22;5013611;28;20065;-75
2021/10/09 01:33:49;;;;;;;65.28;38.00;;;;;;;9.68;100.00;103098.75;5013230;28;20112;-75
2021/10/09 01:36:14;;;;;;;62.83;36.28;;;;;;;9.66;100.00;103098.66;5014727;28;20112;-75
2021/10/09 01:38:40;;;;;;;57.67;35.80;;;;;;;9.63;100.00;103095.88;5022593;28;20084;-75
2021/10/09 01:41:07;;;;;;;58.05;35.85;;;;;;;9.64;100.00;103089.78;5014186;28;20366;-75
2021/10/09 01:43:32;;;;;;;59.33;37.17;;;;;;;9.64;100.00;103095.03;5014983;28;20493;-74
2021/10/09 01:45:58;;;;;;;56.58;35.13;;;;;;;9.64;100.00;103092.41;5012348;28;20033;-75
2021/10/09 01:48:32;;;;;;;56.05;35.85;;;;;;;9.67;100.00;103086.41;5012536;28;20456;-75
2021/10/09 01:50:58;;;;;;;58.60;36.08;;;;;;;9.64;100.00;103089.78;5012123;28;20401;-74
2021/10/09 01:53:23;;;;;;;55.83;34.38;;;;;;;9.63;100.00;103082.75;5013808;28;20033;-75
2021/10/09 01:55:49;;;;;;;53.83;35.63;;;;;;;9.60;100.00;103085.16;5012270;28;20363;-73
2021/10/09 01:58:14;;;;;;;51.00;34.05;;;;;;;9.55;100.00;103081.38;5015144;28;20053;-74
2021/10/09 02:00:39;;;;;;;50.22;33.85;;;;;;;9.50;100.00;103081.13;5013613;28;20057;-75
2021/10/09 02:03:07;;;;;;;53.70;33.60;;;;;;;9.50;100.00;103080.22;5011833;28;20029;-74
2021/10/09 02:05:34;;;;;;;53.97;35.40;;;;;;;9.51;100.00;103092.53;5013953;28;20335;-74
2021/10/09 02:08:01;;;;;;;51.67;34.90;;;;;;;9.49;100.00;103079.31;5013290;28;20040;-74
2021/10/09 02:10:26;;;;;;;55.10;34.65;;;;;;;9.41;100.00;103086.78;5011527;28;20699;-74
2021/10/09 02:12:53;;;;;;;48.70;30.98;;;;;;;9.39;100.00;103080.50;5014643;28;20025;-74
2021/10/09 02:25:55;;;;;;;52.20;32.35;;;;;;;9.16;100.00;103073.03;5014222;28;20081;-74
2021/10/09 02:28:25;;;;;;;52.78;34.30;;;;;;;9.10;100.00;103078.78;5013824;28;20435;-75
2021/10/09 02:30:52;;;;;;;66.63;34.83;;;;;;;9.06;100.00;103074.19;5010379;28;20046;-74
2021/10/09 02:33:18;;;;;;;53.75;34.58;;;;;;;9.08;100.00;103080.44;5008675;28;20056;-74
2021/10/09 02:35:44;;;;;;;47.85;31.65;;;;;;;9.04;100.00;103078.47;5013658;28;20021;-74
2021/10/09 02:38:10;;;;;;;56.00;34.47;;;;;;;9.01;100.00;103070.41;5012500;28;20041;-74
2021/10/09 02:40:38;;;;;;;53.72;34.53;;;;;;;8.97;100.00;103073.63;5013144;28;20038;-74
2021/10/09 02:43:03;;;;;;;52.72;33.90;;;;;;;8.89;100.00;103073.22;5013868;28;20402;-75
2021/10/09 02:45:29;;;;;;;55.33;33.67;;;;;;;8.89;100.00;103070.56;5012357;28;20021;-74
2021/10/09 02:48:01;;;;;;;57.17;33.67;;;;;;;8.83;100.00;103073.75;5011636;28;20029;-75
2021/10/09 02:50:27;;;;;;;50.03;33.15;;;;;;;8.80;100.00;103078.78;5010810;28;20033;-75
2021/10/09 02:52:53;;;;;;;52.15;33.45;;;;;;;8.78;100.00;103077.81;5010342;28;20416;-75
2021/10/09 02:55:19;;;;;;;59.22;35.00;;;;;;;8.77;100.00;103074.25;5014095;28;20117;-75
2021/10/09 02:57:48;;;;;;;59.35;32.53;;;;;;;8.72;100.00;103073.09;5011509;28;20088;-76
2021/10/09 03:00:15;;;;;;;54.88;34.67;;;;;;;8.68;100.00;103063.25;5012224;28;20034;-73
2021/10/09 03:02:40;;;;;;;52.97;33.33;;;;;;;8.62;100.00;103067.22;4996125;28;20535;-74
2021/10/09 03:05:06;;;;;;;53.85;33.53;;;;;;;8.59;100.00;103070.56;5010502;28;20108;-74
2021/10/09 03:07:32;;;;;;;60.17;35.63;;;;;;;8.62;100.00;103068.09;5013564;28;20064;-74
2021/10/09 03:09:57;;;;;;;60.75;35.20;;;;;;;8.62;100.00;103070.72;5013416;28;20061;-75
2021/10/09 03:12:23;;;;;;;53.30;34.38;;;;;;;8.60;100.00;103069.75;5012739;28;20026;-75
2021/10/09 03:14:49;;;;;;;58.50;34.58;;;;;;;8.59;100.00;103063.56;5010482;28;20026;-75
2021/10/09 03:17:14;;;;;;;61.70;36.90;;;;;;;8.62;100.00;103065.47;5009587;28;20516;-74
2021/10/09 03:19:39;;;;;;;61.40;34.40;;;;;;;8.60;100.00;103065.38;5009248;28;20500;-75
2021/10/09 03:22:06;;;;;;;62.10;36.55;;;;;;;8.64;100.00;103063.88;5011282;28;20022;-73
2021/10/09 03:24:32;;;;;;;60.70;37.00;;;;;;;8.66;100.00;103064.84;5011944;28;20438;-74
2021/10/09 03:26:57;;;;;;;55.80;34.40;;;;;;;8.67;100.00;103066.66;5012244;28;20119;-74
2021/10/09 03:29:22;;;;;;;58.47;35.85;;;;;;;8.68;100.00;103063.25;5012105;28;20865;-74
2021/10/09 03:31:48;;;;;;;56.33;34.35;;;;;;;8.67;100.00;103061.41;5012474;28;20393;-74
2021/10/09 03:34:13;;;;;;;61.50;37.15;;;;;;;8.68;100.00;103062.31;5011402;28;20025;-74
2021/10/09 03:36:38;;;;;;;59.03;34.70;;;;;;;8.68;100.00;103065.88;5012279;28;20026;-74
2021/10/09 03:39:08;;;;;;;70.20;40.13;;;;;;;8.70;100.00;103060.69;5009875;28;20064;-74
2021/10/09 03:41:35;;;;;;;65.90;38.60;;;;;;;8.68;100.00;103064.94;5011500;28;20040;-75
2021/10/09 03:44:01;;;;;;;56.85;33.72;;;;;;;8.66;100.00;103063.97;5013988;28;20080;-75
2021/10/09 03:46:28;;;;;;;61.47;36.28;;;;;;;8.64;100.00;103058.63;5004347;28;20398;-75
2021/10/09 03:54:03;;;;;;;65.63;36.10;;;;;;;8.71;100.00;103063.41;5012905;28;20104;-75
2021/10/09 03:56:28;;;;;;;69.65;40.47;;;;;;;8.80;100.00;103067.41;5011194;28;20038;-75
2021/10/09 03:58:54;;;;;;;62.38;34.97;;;;;;;8.80;100.00;103064.78;5011068;28;20065;-74
2021/10/09 04:01:19;;;;;;;63.88;34.72;;;;;;;8.77;100.00;103066.38;5003000;28;20091;-74
2021/10/09 04:03:44;;;;;;;56.65;34.10;;;;;;;8.75;100.00;103064.50;5008206;28;20446;-74
2021/10/09 04:06:10;;;;;;;57.13;33.88;;;;;;;8.71;100.00;103066.03;5011813;28;20493;-74
2021/10/09 04:08:35;;;;;;;56.67;34.25;;;;;;;8.69;100.00;103059.78;5011868;28;20105;-74
2021/10/09 04:11:00;;;;;;;56.75;33.38;;;;;;;8.69;100.00;103061.50;5026545;28;20033;-74
2021/10/09 04:13:26;;;;;;;65.07;36.67;;;;;;;8.72;100.00;103065.22;5015356;28;20061;-74
2021/10/09 04:15:51;;;;;;;56.63;35.03;;;;;;;8.65;100.00;103068.28;5015799;28;20124;-73
2021/10/09 04:18:16;;;;;;;61.55;35.95;;;;;;;8.67;100.00;103064.03;5015279;28;20081;-73
2021/10/09 04:20:42;;;;;;;58.60;33.92;;;;;;;8.62;100.00;103062.84;5019633;28;20044;-74
2021/10/09 04:23:07;;;;;;;58.30;34.35;;;;;;;8.60;100.00;103062.75;5016296;28;20111;-75
2021/10/09 04:25:32;;;;;;;62.85;36.85;;;;;;;8.57;100.00;103066.91;5015730;28;20034;-74
2021/10/09 04:27:58;;;;;;;59.40;33.92;;;;;;;8.54;100.00;103064.13;5015378;28;20018;-74
2021/10/09 04:30:23;;;;;;;59.78;34.40;;;;;;;8.49;100.00;103061.22;5015058;28;20133;-75
2021/10/09 04:32:48;;;;;;;54.15;33.20;;;;;;;8.46;100.00;103062.75;5014519;28;20450;-74
2021/10/09 04:35:14;;;;;;;58.67;34.63;;;;;;;8.41;100.00;103063.34;5015519;28;20025;-74
2021/10/09 04:37:39;;;;;;;57.45;34.55;;;;;;;8.39;100.00;103059.69;5014654;28;20068;-74
2021/10/09 04:40:05;;;;;;;63.80;37.78;;;;;;;8.40;100.00;103058.88;5014771;28;20454;-74
2021/10/09 04:42:31;;;;;;;66.28;38.95;;;;;;;8.43;100.00;103068.66;5022774;28;20038;-75
2021/10/09 04:44:57;;;;;;;68.50;38.10;;;;;;;8.43;100.00;103064.31;5015498;28;20040;-74
2021/10/09 04:47:22;;;;;;;57.97;35.35;;;;;;;8.43;100.00;103063.41;5013372;28;20034;-73
2021/10/09 04:49:48;;;;;;;59.83;35.28;;;;;;;8.41;100.00;103063.34;5016407;28;20112;-74
2021/10/09 04:52:13;;;;;;;61.80;35.40;;;;;;;8.41;100.00;103063.34;5014448;28;20041;-74
2021/10/09 04:54:40;;;;;;;60.15;33.85;;;;;;;8.39;100.00;103056.19;5011197;28;20026;-74
2021/10/09 04:57:05;;;;;;;62.22;37.38;;;;;;;8.43;100.00;103051.19;5015416;28;20052;-75
2021/10/09 04:59:31;;;;;;;65.47;35.35;;;;;;;8.38;100.00;103052.66;5013995;28;20030;-74
2021/10/09 05:01:56;;;;;;;69.78;38.78;;;;;;;8.40;100.00;103048.41;5015526;28;20105;-74
2021/10/09 05:04:21;;;;;;;66.75;36.85;;;;;;;8.43;100.00;103045.94;5013341;28;20034;-74
2021/10/09 05:06:47;;;;;;;69.68;38.33;;;;;;;8.39;100.00;103049.19;5016044;28;20026;-75
2021/10/09 05:09:12;;;;;;;64.53;37.55;;;;;;;8.35;100.00;103049.81;5012427;28;20028;-75
2021/10/09 05:11:37;;;;;;;61.22;33.55;;;;;;;8.32;100.00;103051.38;5013788;28;20064;-75
2021/10/09 05:14:03;;;;;;;60.28;35.13;;;;;;;8.29;100.00;103052.09;5014556;28;20025;-75
2021/10/09 05:16:28;;;;;;;63.30;36.35;;;;;;;8.28;100.00;103058.13;5011958;28;20517;-74
2021/10/09 05:18:53;;;;;;;69.05;36.90;;;;;;;8.25;100.00;103050.97;5013555;28;20065;-74
2021/10/09 05:21:19;;;;;;;67.70;37.17;;;;;;;8.25;100.00;103045.75;5014452;28;20036;-75
2021/10/09 05:23:44;;;;;;;72.95;38.10;;;;;;;8.22;100.00;103045.56;5011018;28;20038;-74
2021/10/09 05:26:10;;;;;;;69.93;39.22;;;;;;;8.25;100.00;103055.34;5016521;28;20069;-74
2021/10/09 05:31:09;;;;;;;68.20;38.17;;;;;;;8.21;100.00;103053.34;5013528;28;20038;-75
2021/10/09 05:35:59;;;;;;;64.75;37.33;;;;;;;8.19;100.00;103055.88;5014455;28;20056;-74
2021/10/09 05:38:25;;;;;;;68.35;37.50;;;;;;;8.20;100.00;103051.53;5014033;28;20058;-74
2021/10/09 05:40:50;;;;;;;63.17;35.40;;;;;;;8.20;100.00;103059.38;5007332;28;20026;-74
2021/10/09 05:43:16;;;;;;;64.70;36.17;;;;;;;8.22;100.00;103063.00;5013800;28;20038;-74
2021/10/09 05:45:42;;;;;;;64.50;36.60;;;;;;;8.19;100.00;103055.88;5014653;28;20041;-74
2021/10/09 05:48:08;;;;;;;63.67;34.22;;;;;;;8.19;100.00;103061.13;5020614;28;20033;-76
2021/10/09 05:50:45;;;;;;;58.80;34.90;;;;;;;8.16;100.00;103054.75;5012693;28;20056;-75
2021/10/09 05:58:32;;;;;;;65.88;36.03;;;;;;;8.10;100.00;103056.19;5015625;28;20414;-76
2021/10/09 06:01:20;;;;;;;67.82;37.53;;;;;;;8.14;100.00;103061.63;5010642;28;20053;-74
2021/10/09 07:00:51;;;;;;;63.80;35.15;;;;;;;8.35;100.00;103122.38;5025890;28;19920;-74
2021/10/09 07:03:17;;;;;;;63.33;35.25;;;;;;;8.35;100.00;103118.03;5015199;28;20021;-74
2021/10/09 07:05:43;;;;;;;79.35;41.03;;;;;;;8.43;100.00;103116.78;5010320;28;20054;-74
2021/10/09 07:08:09;;;;;;;70.43;39.55;;;;;;;8.46;100.00;103125.72;5015276;28;20108;-74
2021/10/09 07:10:40;;;;;;;59.00;34.25;;;;;;;8.48;100.00;103124.06;5014340;28;20034;-73
2021/10/09 07:13:06;;;;;;;65.25;35.55;;;;;;;8.51;100.00;103126.91;5014035;28;20168;-76
2021/10/09 07:15:31;;;;;;;67.22;37.15;;;;;;;8.56;100.00;103125.44;5024172;28;20104;-78
2021/10/09 07:17:57;;;;;;;65.80;37.22;;;;;;;8.56;100.00;103128.06;5022325;28;20429;-77
2021/10/09 07:20:22;;;;;;;80.88;41.53;;;;;;;8.62;100.00;103125.84;5023612;28;20025;-78
2021/10/09 07:22:48;;;;;;;80.60;43.65;;;;;;;8.69;100.00;103129.75;5023350;28;20038;-78
2021/10/09 07:25:14;;;;;;;78.30;41.60;;;;;;;8.73;100.00;103135.25;5021323;28;20085;-78
2021/10/09 07:27:40;;;;;;;75.35;41.70;;;;;;;8.80;100.00;103138.28;5017103;28;20037;-77
2021/10/09 07:30:06;;;;;;;82.53;42.08;;;;;;;8.86;100.00;103142.19;5016782;28;20034;-79
2021/10/09 07:32:31;;;;;;;73.32;41.65;;;;;;;8.88;100.00;103134.41;5013983;28;20025;-79
2021/10/09 07:34:56;;;;;;;79.75;43.13;;;;;;;8.95;100.00;103136.56;5013431;28;20056;-77
2021/10/09 07:37:22;;;;;;;86.85;43.90;;;;;;;8.99;100.00;103135.94;5016470;28;20052;-78
2021/10/09 07:39:47;;;;;;;74.97;41.38;;;;;;;9.04;100.00;103142.38;5013640;28;20022;-78
2021/10/09 07:42:13;;;;;;;79.78;41.88;;;;;;;9.08;100.00;103131.25;5014378;28;20117;-78
2021/10/09 07:44:38;;;;;;;72.07;42.08;;;;;;;9.13;100.00;103139.41;5026483;28;20028;-79
2021/10/09 07:47:06;;;;;;;73.00;40.97;;;;;;;9.19;100.00;103141.50;5017361;28;20021;-77
2021/10/09 07:49:32;;;;;;;76.53;41.80;;;;;;;9.22;100.00;103132.06;5011493;28;20141;-78
2021/10/09 07:51:58;;;;;;;75.97;42.67;;;;;;;9.27;100.00;103129.72;5013503;28;20157;-77
2021/10/09 07:54:23;;;;;;;78.75;42.97;;;;;;;9.32;100.00;103133.53;5010166;28;20093;-77
2021/10/09 07:56:48;;;;;;;77.10;43.20;;;;;;;9.39;100.00;103135.69;5014656;28;20038;-77
2021/10/09 07:59:14;;;;;;;81.63;42.03;;;;;;;9.44;100.00;103138.56;5014147;28;20042;-76
2021/10/09 08:01:39;;;;;;;77.97;41.90;;;;;;;9.51;100.00;103145.09;5018707;28;20485;-76
2021/10/09 08:04:04;;;;;;;73.93;41.35;;;;;;;9.56;100.00;103138.38;5014145;28;20114;-76
2021/10/09 08:06:30;;;;;;;78.03;41.83;;;;;;;9.62;100.00;103139.66;5012955;28;20110;-76
2021/10/09 08:08:55;;;;;;;75.63;41.58;;;;;;;9.69;100.00;103146.16;5019601;28;20397;-76
2021/10/09 08:11:21;;;;;;;79.13;42.55;;;;;;;9.76;100.00;103139.53;5012593;28;20025;-77
2021/10/09 08:13:46;;;;;;;73.70;42.38;;;;;;;9.83;100.00;103135.53;5033248;28;20022;-76
2021/10/09 08:16:12;;;;;;;69.20;40.08;;;;;;;9.90;100.00;103137.69;5019467;28;20021;-74
2021/10/09 08:18:38;;;;;;;73.10;41.10;;;;;;;9.98;100.00;103140.75;5014277;28;20036;-77
2021/10/09 08:21:05;;;;;;;68.47;40.20;;;;;;;10.05;100.00;103141.19;5020221;28;20025;-75
2021/10/09 08:37:18;;;;;;;80.65;48.92;;;;;;;10.59;100.00;103137.97;5012365;28;20397;-73
2021/10/09 08:39:44;;;;;;;70.95;44.53;;;;;;;10.72;100.00;103140.44;4995138;28;20490;-72
2021/10/09 08:42:11;;;;;;;68.53;41.30;;;;;;;10.87;100.00;103142.06;5010943;28;20045;-74
2021/10/09 08:44:38;;;;;;;65.00;39.53;;;;;;;11.01;100.00;103143.69;5023062;28;20017;-77
2021/10/09 08:47:04;;;;;;;62.78;38.88;;;;;;;11.16;100.00;103143.56;5023411;28;20022;-75
2021/10/09 08:49:32;;;;;;;58.10;37.80;;;;;;;11.33;100.00;103141.78;5022334;28;20035;-75
2021/10/09 08:51:59;;;;;;;59.65;35.38;;;;;;;11.52;99.90;103134.81;5020142;28;20037;-74
2021/10/09 08:54:34;;;;;;;52.40;35.13;;;;;;;11.71;98.77;103132.25;5026804;28;20040;-77
2021/10/09 08:57:11;;;;;;;57.80;36.58;;;;;;;11.89;98.04;103137.50;5021608;28;20026;-76
2021/10/09 08:59:46;;;;;;;53.90;32.15;;;;;;;12.20;97.38;103140.75;5024020;28;20032;-76
2021/10/09 09:02:20;;;;;;;52.78;33.60;;;;;;;12.45;94.81;103130.47;5029676;28;20440;-77
2021/10/09 09:27:12;;;;;;;37.97;27.48;;;;;;;15.16;79.73;103115.66;5010791;28;20040;-73
2021/10/09 09:40:09;;;;;;;40.08;27.42;;;;;;;15.85;75.57;103106.44;5016467;28;20040;-72
2021/10/09 09:42:52;;;;;;;39.78;26.65;;;;;;;15.93;75.98;103105.78;5018725;28;20813;-73
2021/10/09 09:45:26;;;;;;;41.05;28.80;;;;;;;15.90;77.00;103103.94;5016286;28;20120;-67
2021/10/09 09:47:55;;;;;;;37.58;26.92;;;;;;;15.90;77.86;103108.31;5020917;28;20025;-70
2021/10/09 09:50:20;;;;;;;43.88;27.13;;;;;;;15.95;76.62;103096.09;5016489;28;20036;-72
2021/10/09 09:52:46;;;;;;;42.30;27.95;;;;;;;16.13;75.39;103095.78;5022968;28;20112;-71
2021/10/09 09:55:17;;;;;;;38.13;26.45;;;;;;;16.28;74.07;103087.34;5022795;28;20036;-72
2021/10/09 09:57:43;;;;;;;39.63;26.88;;;;;;;16.47;74.88;103097.63;5018136;28;20385;-72
2021/10/09 10:00:10;;;;;;;39.30;27.55;;;;;;;16.58;73.62;103089.06;5023863;28;20335;-73
2021/10/09 10:02:43;;;;;;;40.22;27.23;;;;;;;16.67;73.96;103094.63;5016084;28;20042;-74
2021/10/09 10:05:10;;;;;;;35.05;25.38;;;;;;;16.89;73.28;103096.16;5014582;28;20044;-73
2021/10/09 10:07:37;;;;;;;39.78;26.20;;;;;;;16.99;73.19;103089.31;5017451;28;20100;-72
2021/10/09 10:10:04;;;;;;;40.20;27.17;;;;;;;17.11;72.16;103086.06;5012788;28;20514;-73
2021/10/09 10:12:30;;;;;;;41.85;28.83;;;;;;;17.14;71.17;103087.03;5014927;28;20389;-72
2021/10/09 10:14:57;;;;;;;37.28;26.48;;;;;;;17.33;69.26;103072.41;5014143;28;20033;-77
2021/10/09 10:17:44;;;;;;;33.38;25.70;;;;;;;17.49;70.00;103079.00;5014721;28;20037;-77
2021/10/09 10:20:18;;;;;;;39.63;25.63;;;;;;;17.74;67.83;103076.91;5015012;28;20104;-75
2021/10/09 10:22:43;;;;;;;35.88;25.63;;;;;;;18.02;68.25;103085.56;5013617;28;20509;-75
2021/10/09 10:25:14;;;;;;;36.30;24.90;;;;;;;18.26;67.94;103081.59;5030934;28;20030;-76
2021/10/09 10:27:40;;;;;;;33.78;24.40;;;;;;;18.39;64.04;103064.09;5013646;28;20466;-76
2021/10/09 10:30:19;;;;;;;37.55;25.50;;;;;;;18.70;63.57;103066.47;5014694;28;20034;-76
2021/10/09 10:32:56;;;;;;;36.58;26.88;;;;;;;18.81;66.00;103074.66;5013972;28;20030;-77
2021/10/09 10:35:30;;;;;;;34.03;25.10;;;;;;;18.99;65.70;103083.91;5013045;28;20029;-76
2021/10/09 10:38:08;;;;;;;39.17;26.00;;;;;;;19.17;64.46;103068.22;5029495;28;20493;-75
2021/10/09 10:40:58;;;;;;;39.42;26.20;;;;;;;19.30;62.65;103065.72;5013961;28;20026;-79
2021/10/09 10:46:19;;;;;;;34.97;24.83;;;;;;;19.94;60.46;103068.50;5012827;28;20049;-80
2021/10/09 10:48:48;;;;;;;42.00;25.33;;;;;;;19.96;57.99;103057.81;5016141;28;20496;-80
2021/10/09 10:51:54;;;;;;;32.50;24.95;;;;;;;19.78;57.52;103051.31;5019964;28;20026;-79
2021/10/09 10:54:35;;;;;;;33.47;24.30;;;;;;;20.15;56.88;103056.25;5015810;28;20093;-80
2021/10/09 10:57:01;;;;;;;33.95;25.08;;;;;;;20.28;57.38;103054.63;5014388;28;20053;-78
2021/10/09 10:59:33;;;;;;;33.25;25.58;;;;;;;20.18;57.75;103057.22;5015151;28;20039;-77
2021/10/09 11:02:08;;;;;;;33.67;24.70;;;;;;;20.29;57.48;103054.63;5024377;28;20381;-78
2021/10/09 11:04:35;;;;;;;32.72;24.67;;;;;;;20.45;58.89;103062.84;5036911;28;20508;-79
2021/10/09 11:07:01;;;;;;;31.95;24.92;;;;;;;20.62;57.08;103060.34;5012066;28;20037;-79
2021/10/09 11:09:27;;;;;;;34.08;25.63;;;;;;;20.70;55.84;103056.91;5012829;28;20042;-81
2021/10/09 11:11:52;;;;;;;38.30;25.85;;;;;;;20.67;58.92;103066.63;5016191;28;20034;-79
2021/10/09 11:14:22;;;;;;;32.85;25.00;;;;;;;20.87;55.79;103062.38;5007789;28;20080;-78
2021/10/09 11:16:48;;;;;;;32.65;25.15;;;;;;;20.78;55.82;103048.97;5010557;28;20026;-77
2021/10/09 11:19:13;;;;;;;33.75;22.77;;;;;;;20.96;53.97;103047.28;5016928;28;20621;-76
2021/10/09 11:21:53;;;;;;;35.95;24.98;;;;;;;20.98;54.48;103053.56;5011279;28;20108;-77
2021/10/09 11:24:21;;;;;;;38.20;24.90;;;;;;;21.10;54.04;103055.47;5013437;28;20494;-76
2021/10/09 11:26:53;;;;;;;34.67;25.60;;;;;;;21.25;52.74;103043.97;5011494;28;20071;-77
2021/10/09 11:29:18;;;;;;;33.42;25.52;;;;;;;21.30;53.53;103037.75;5012343;28;20056;-77
2021/10/09 11:31:44;;;;;;;33.65;25.05;;;;;;;21.27;54.16;103036.84;5028292;28;20037;-76
2021/10/09 11:34:09;;;;;;;32.67;24.92;;;;;;;21.45;52.23;103034.28;5010729;28;20148;-76
2021/10/09 11:36:39;;;;;;;31.17;24.23;;;;;;;21.69;52.13;103040.69;5028680;28;20038;-76
2021/10/09 11:39:11;;;;;;;31.58;26.23;;;;;;;21.49;52.13;103044.13;5011849;28;20076;-76
2021/10/09 11:41:36;;;;;;;34.08;24.02;;;;;;;21.88;51.86;103037.22;5007515;28;20039;-76
2021/10/09 11:44:18;;;;;;;41.65;25.60;;;;;;;21.94;50.82;103039.03;5021781;28;20026;-76
2021/10/09 11:55:50;;;;;;;32.55;24.02;;;;;;;22.39;49.42;103025.78;5019312;28;20037;-76
2021/10/09 11:58:15;;;;;;;35.35;25.88;;;;;;;22.42;50.20;103028.47;5028428;28;20477;-76
2021/10/09 12:00:41;;;;;;;37.63;25.60;;;;;;;22.35;50.71;103032.03;5010896;28;20033;-76
2021/10/09 12:03:25;;;;;;;34.35;26.23;;;;;;;22.27;49.94;103028.41;5012537;28;20033;-76
2021/10/09 12:06:10;;;;;;;34.63;24.52;;;;;;;22.14;50.45;103028.38;5011563;28;20038;-77
2021/10/09 12:08:58;;;;;;;37.28;25.35;;;;;;;22.39;49.31;103028.47;5015636;28;20037;-75
2021/10/09 12:11:27;;;;;;;35.63;26.58;;;;;;;22.31;49.02;103031.09;5013365;28;20038;-70
2021/10/09 12:14:01;;;;;;;34.70;25.73;;;;;;;22.13;48.91;103029.25;5008322;28;20029;-68
2021/10/09 12:16:31;;;;;;;37.22;26.42;;;;;;;22.04;49.05;103021.19;5012047;28;20034;-70
2021/10/09 12:19:00;;;;;;;36.92;25.55;;;;;;;22.10;50.67;103029.25;5022951;28;20037;-72
2021/10/09 12:21:28;;;;;;;32.65;25.48;;;;;;;21.97;50.37;103024.75;5010706;28;20022;-75
2021/10/09 12:23:54;;;;;;;34.83;25.05;;;;;;;21.95;52.52;103027.44;5011164;28;20165;-72
2021/10/09 12:26:21;;;;;;;35.03;26.65;;;;;;;22.28;49.81;103019.47;5012726;28;20069;-72
2021/10/09 12:29:07;;;;;;;33.15;25.38;;;;;;;22.04;49.93;103018.50;5012669;28;20048;-73
2021/10/09 12:31:35;;;;;;;33.72;24.08;;;;;;;22.34;49.89;103009.69;5011872;28;20470;-73
2021/10/09 12:34:02;;;;;;;29.95;25.13;;;;;;;22.09;51.29;103013.19;5012362;28;20474;-73
2021/10/09 12:38:55;;;;;;;36.20;25.42;;;;;;;22.31;50.16;103003.38;5015507;28;20032;-74
2021/10/09 12:41:20;;;;;;;35.33;26.88;;;;;;;22.41;48.97;103007.94;5014634;28;20034;-73
2021/10/09 12:43:51;;;;;;;35.55;24.95;;;;;;;22.07;49.47;103002.44;5015976;28;20104;-73
2021/10/09 12:46:16;;;;;;;33.47;24.35;;;;;;;21.97;51.92;103008.66;5016009;28;20050;-71
2021/10/09 12:48:42;;;;;;;35.28;25.33;;;;;;;21.95;50.62;103007.75;5015907;28;20482;-71
2021/10/09 12:51:07;;;;;;;32.22;25.75;;;;;;;21.92;51.47;103005.97;5016608;28;20069;-71
2021/10/09 12:53:32;;;;;;;33.53;25.73;;;;;;;21.67;52.53;103013.00;5028313;28;20036;-71
2021/10/09 12:55:58;;;;;;;32.75;23.90;;;;;;;21.50;51.78;103003.06;5024950;28;20523;-70
2021/10/09 12:58:23;;;;;;;37.90;24.52;;;;;;;21.17;54.55;103009.97;5015630;28;20021;-70
2021/10/09 13:00:48;;;;;;;37.42;24.85;;;;;;;21.12;53.06;103001.06;5015105;28;20045;-70
2021/10/09 13:03:14;;;;;;;39.03;25.67;;;;;;;20.75;54.39;103003.41;5015352;28;20064;-70
2021/10/09 13:05:39;;;;;;;36.70;25.27;;;;;;;20.26;56.60;103010.94;5013470;28;20060;-71
2021/10/09 13:08:05;;;;;;;41.10;26.30;;;;;;;20.01;58.10;103005.31;5014959;28;20041;-70
2021/10/09 13:10:40;;;;;;;33.42;23.65;;;;;;;19.66;60.32;103019.09;5016243;28;20033;-72
2021/10/09 13:13:05;;;;;;;35.13;25.95;;;;;;;19.68;58.08;103011.97;5014268;28;20397;-71
2021/10/09 13:15:30;;;;;;;38.45;25.02;;;;;;;19.58;59.53;103013.63;5014145;28;20036;-70
2021/10/09 13:17:56;;;;;;;39.10;24.95;;;;;;;19.28;60.17;103015.00;5014161;28;20059;-70
2021/10/09 13:20:25;;;;;;;37.72;26.67;;;;;;;19.10;60.57;103012.94;5014009;28;20066;-71
2021/10/09 13:22:50;;;;;;;37.45;25.48;;;;;;;18.97;62.54;103014.50;5014775;28;20042;-70
2021/10/09 13:25:15;;;;;;;32.70;24.40;;;;;;;18.83;62.79;103008.91;5015532;28;20038;-71
2021/10/09 13:27:40;;;;;;;37.90;23.88;;;;;;;18.70;62.67;103012.25;5015719;28;20529;-71
2021/10/09 13:30:06;;;;;;;32.75;23.00;;;;;;;18.72;60.83;102994.50;5015812;28;20116;-70
2021/10/09 13:32:31;;;;;;;33.00;23.88;;;;;;;18.70;61.31;103004.25;5014608;28;20022;-71
2021/10/09 13:34:57;;;;;;;36.22;24.73;;;;;;;18.53;61.33;102995.97;5015747;28;20064;-71